sensor_id;sensor_type;location;lat;lon;timestamp;pressure;altitude;pressure_sealevel;temperature;humidity
7660;BME280;3872;47.902;8.162;2023-12-28T00:01:39;92089.94;;;11.82;30.20
7660;BME280;3872;47.902;8.162;2023-12-28T00:04:06;92097.75;;;11.46;30.80
7660;BME280;3872;47.902;8.162;2023-12-28T00:06:32;92088.75;;;11.19;32.03
7660;BME280;3872;47.902;8.162;2023-12-28T00:09:00;92092.28;;;11.15;31.95
7660;BME280;3872;47.902;8.162;2023-12-28T00:11:26;92088.59;;;10.83;31.12
7660;BME280;3872;47.902;8.162;2023-12-28T00:13:53;92079.56;;;11.03;31.43
7660;BME280;3872;47.902;8.162;2023-12-28T00:16:19;92083.34;;;10.83;31.98
7660;BME280;3872;47.902;8.162;2023-12-28T00:18:46;92084.06;;;11.16;30.07
7660;BME280;3872;47.902;8.162;2023-12-28T00:21:12;92089.81;;;11.59;30.21
7660;BME280;3872;47.902;8.162;2023-12-28T00:23:39;92076.66;;;11.59;30.26
7660;BME280;3872;47.902;8.162;2023-12-28T00:26:07;92084.88;;;11.85;29.49
7660;BME280;3872;47.902;8.162;2023-12-28T00:28:34;92075.78;;;11.23;29.85
7660;BME280;3872;47.902;8.162;2023-12-28T00:31:02;92080.53;;;11.89;29.86
7660;BME280;3872;47.902;8.162;2023-12-28T00:33:28;92076.81;;;12.04;29.28
7660;BME280;3872;47.902;8.162;2023-12-28T00:35:56;92082.41;;;11.89;29.21
7660;BME280;3872;47.902;8.162;2023-12-28T00:38:23;92081.22;;;11.67;29.90
7660;BME280;3872;47.902;8.162;2023-12-28T00:40:50;92096.16;;;11.99;30.21
7660;BME280;3872;47.902;8.162;2023-12-28T00:43:18;92103.00;;;11.59;30.05
7660;BME280;3872;47.902;8.162;2023-12-28T00:45:45;92098.22;;;11.61;29.63
7660;BME280;3872;47.902;8.162;2023-12-28T00:48:13;92100.69;;;11.58;29.90
7660;BME280;3872;47.902;8.162;2023-12-28T00:50:39;92094.34;;;11.86;29.55
7660;BME280;3872;47.902;8.162;2023-12-28T00:53:06;92090.31;;;11.89;29.56
7660;BME280;3872;47.902;8.162;2023-12-28T00:55:33;92096.47;;;11.84;30.03
7660;BME280;3872;47.902;8.162;2023-12-28T00:58:01;92101.16;;;11.46;30.73
7660;BME280;3872;47.902;8.162;2023-12-28T01:00:29;92097.84;;;10.81;31.54
7660;BME280;3872;47.902;8.162;2023-12-28T01:02:55;92109.59;;;11.02;30.99
7660;BME280;3872;47.902;8.162;2023-12-28T01:05:22;92106.22;;;10.69;32.13
7660;BME280;3872;47.902;8.162;2023-12-28T01:07:51;92106.66;;;10.90;32.25
7660;BME280;3872;47.902;8.162;2023-12-28T01:10:17;92091.25;;;10.97;32.73
7660;BME280;3872;47.902;8.162;2023-12-28T01:12:44;92095.13;;;10.53;33.18
7660;BME280;3872;47.902;8.162;2023-12-28T01:15:10;92099.19;;;10.65;33.20
7660;BME280;3872;47.902;8.162;2023-12-28T01:17:38;92100.72;;;10.33;33.69
7660;BME280;3872;47.902;8.162;2023-12-28T01:20:06;92100.13;;;10.55;33.36
7660;BME280;3872;47.902;8.162;2023-12-28T01:22:32;92108.34;;;10.35;33.10
7660;BME280;3872;47.902;8.162;2023-12-28T01:24:59;92122.59;;;9.91;33.88
7660;BME280;3872;47.902;8.162;2023-12-28T01:27:25;92123.72;;;9.85;33.19
7660;BME280;3872;47.902;8.162;2023-12-28T01:29:54;92121.63;;;10.76;32.00
7660;BME280;3872;47.902;8.162;2023-12-28T01:32:20;92118.81;;;10.72;32.00
7660;BME280;3872;47.902;8.162;2023-12-28T01:34:48;92130.34;;;10.57;32.47
7660;BME280;3872;47.902;8.162;2023-12-28T01:37:15;92121.41;;;10.58;31.92
7660;BME280;3872;47.902;8.162;2023-12-28T01:39:41;92129.56;;;10.57;31.82
7660;BME280;3872;47.902;8.162;2023-12-28T01:42:08;92129.34;;;10.72;32.05
7660;BME280;3872;47.902;8.162;2023-12-28T01:44:34;92129.94;;;10.50;32.17
7660;BME280;3872;47.902;8.162;2023-12-28T01:47:01;92136.75;;;10.14;32.47
7660;BME280;3872;47.902;8.162;2023-12-28T01:49:27;92139.66;;;10.31;32.63
7660;BME280;3872;47.902;8.162;2023-12-28T01:51:56;92143.31;;;10.35;32.52
7660;BME280;3872;47.902;8.162;2023-12-28T01:54:23;92149.00;;;10.42;32.93
7660;BME280;3872;47.902;8.162;2023-12-28T01:56:49;92145.97;;;10.68;32.21
7660;BME280;3872;47.902;8.162;2023-12-28T01:59:16;92157.63;;;10.05;33.42
7660;BME280;3872;47.902;8.162;2023-12-28T02:01:44;92157.66;;;10.62;32.61
7660;BME280;3872;47.902;8.162;2023-12-28T02:04:11;92157.50;;;10.72;32.67
7660;BME280;3872;47.902;8.162;2023-12-28T02:06:39;92162.47;;;10.17;33.34
7660;BME280;3872;47.902;8.162;2023-12-28T02:09:07;92170.66;;;10.15;34.00
7660;BME280;3872;47.902;8.162;2023-12-28T02:11:34;92172.69;;;10.00;34.02
7660;BME280;3872;47.902;8.162;2023-12-28T02:14:02;92171.84;;;10.04;33.65
7660;BME280;3872;47.902;8.162;2023-12-28T02:16:32;92182.50;;;10.13;33.62
7660;BME280;3872;47.902;8.162;2023-12-28T02:19:04;92173.66;;;10.46;32.80
7660;BME280;3872;47.902;8.162;2023-12-28T02:21:33;92191.91;;;9.95;33.26
7660;BME280;3872;47.902;8.162;2023-12-28T02:24:03;92185.25;;;10.03;32.94
7660;BME280;3872;47.902;8.162;2023-12-28T02:26:32;92185.06;;;10.93;32.55
7660;BME280;3872;47.902;8.162;2023-12-28T02:28:58;92187.81;;;10.32;32.92
7660;BME280;3872;47.902;8.162;2023-12-28T02:31:28;92179.88;;;11.20;32.03
7660;BME280;3872;47.902;8.162;2023-12-28T02:34:02;92178.88;;;10.51;33.38
7660;BME280;3872;47.902;8.162;2023-12-28T02:36:31;92175.59;;;10.92;32.55
7660;BME280;3872;47.902;8.162;2023-12-28T02:39:00;92185.59;;;10.76;32.75
7660;BME280;3872;47.902;8.162;2023-12-28T02:41:32;92171.97;;;10.88;33.03
7660;BME280;3872;47.902;8.162;2023-12-28T02:43:59;92170.53;;;10.95;32.94
7660;BME280;3872;47.902;8.162;2023-12-28T02:46:26;92174.88;;;10.35;33.90
7660;BME280;3872;47.902;8.162;2023-12-28T02:48:53;92180.28;;;10.44;33.51
7660;BME280;3872;47.902;8.162;2023-12-28T02:51:22;92173.53;;;10.56;33.35
7660;BME280;3872;47.902;8.162;2023-12-28T02:53:49;92174.22;;;10.94;33.14
7660;BME280;3872;47.902;8.162;2023-12-28T02:56:15;92167.16;;;11.09;33.04
7660;BME280;3872;47.902;8.162;2023-12-28T02:58:43;92164.94;;;11.16;33.03
7660;BME280;3872;47.902;8.162;2023-12-28T03:01:10;92166.88;;;11.10;33.39
7660;BME280;3872;47.902;8.162;2023-12-28T03:03:37;92168.97;;;10.25;34.07
7660;BME280;3872;47.902;8.162;2023-12-28T03:06:03;92178.31;;;10.12;35.15
7660;BME280;3872;47.902;8.162;2023-12-28T03:08:30;92174.44;;;10.28;34.31
7660;BME280;3872;47.902;8.162;2023-12-28T03:10:56;92183.84;;;10.10;34.81
7660;BME280;3872;47.902;8.162;2023-12-28T03:13:23;92185.91;;;10.56;34.08
7660;BME280;3872;47.902;8.162;2023-12-28T03:15:51;92188.50;;;10.75;33.91
7660;BME280;3872;47.902;8.162;2023-12-28T03:18:17;92172.22;;;10.54;34.04
7660;BME280;3872;47.902;8.162;2023-12-28T03:20:44;92169.28;;;10.74;34.12
7660;BME280;3872;47.902;8.162;2023-12-28T03:23:11;92175.03;;;10.44;34.73
7660;BME280;3872;47.902;8.162;2023-12-28T03:25:38;92172.44;;;10.76;34.32
7660;BME280;3872;47.902;8.162;2023-12-28T03:28:06;92174.41;;;10.84;34.21
7660;BME280;3872;47.902;8.162;2023-12-28T03:30:33;92174.44;;;10.66;34.71
7660;BME280;3872;47.902;8.162;2023-12-28T03:33:00;92182.63;;;10.64;35.04
7660;BME280;3872;47.902;8.162;2023-12-28T03:35:27;92172.63;;;11.12;34.25
7660;BME280;3872;47.902;8.162;2023-12-28T03:37:54;92179.19;;;10.26;35.75
7660;BME280;3872;47.902;8.162;2023-12-28T03:40:20;92171.66;;;10.76;35.27
7660;BME280;3872;47.902;8.162;2023-12-28T03:42:47;92170.56;;;11.09;35.31
7660;BME280;3872;47.902;8.162;2023-12-28T03:45:13;92180.50;;;10.29;36.35
7660;BME280;3872;47.902;8.162;2023-12-28T03:47:41;92177.63;;;10.25;36.60
7660;BME280;3872;47.902;8.162;2023-12-28T03:50:09;92179.16;;;11.01;35.97
7660;BME280;3872;47.902;8.162;2023-12-28T03:52:36;92167.75;;;11.06;36.00
7660;BME280;3872;47.902;8.162;2023-12-28T03:55:02;92169.06;;;10.89;36.34
7660;BME280;3872;47.902;8.162;2023-12-28T03:57:29;92159.91;;;10.12;37.99
7660;BME280;3872;47.902;8.162;2023-12-28T03:59:56;92151.47;;;10.71;37.31
7660;BME280;3872;47.902;8.162;2023-12-28T04:02:22;92143.56;;;10.71;37.33
7660;BME280;3872;47.902;8.162;2023-12-28T04:04:49;92165.06;;;10.41;38.02
7660;BME280;3872;47.902;8.162;2023-12-28T04:07:18;92145.66;;;10.88;37.29
7660;BME280;3872;47.902;8.162;2023-12-28T04:09:45;92152.41;;;10.94;36.83
7660;BME280;3872;47.902;8.162;2023-12-28T04:12:11;92150.75;;;10.66;37.57
7660;BME280;3872;47.902;8.162;2023-12-28T04:14:38;92154.38;;;10.32;38.95
7660;BME280;3872;47.902;8.162;2023-12-28T04:17:04;92145.78;;;9.65;40.00
7660;BME280;3872;47.902;8.162;2023-12-28T04:19:31;92144.13;;;9.93;40.06
7660;BME280;3872;47.902;8.162;2023-12-28T04:21:59;92140.91;;;9.54;40.64
7660;BME280;3872;47.902;8.162;2023-12-28T04:24:27;92135.75;;;9.67;40.62
7660;BME280;3872;47.902;8.162;2023-12-28T04:26:54;92120.53;;;10.07;40.16
7660;BME280;3872;47.902;8.162;2023-12-28T04:29:21;92126.09;;;9.15;42.20
7660;BME280;3872;47.902;8.162;2023-12-28T04:31:47;92140.16;;;8.33;45.04
7660;BME280;3872;47.902;8.162;2023-12-28T04:34:14;92143.53;;;7.94;47.07
7660;BME280;3872;47.902;8.162;2023-12-28T04:36:41;92127.81;;;9.25;43.67
7660;BME280;3872;47.902;8.162;2023-12-28T04:39:08;92128.97;;;9.85;42.66
7660;BME280;3872;47.902;8.162;2023-12-28T04:41:36;92120.84;;;9.39;42.96
7660;BME280;3872;47.902;8.162;2023-12-28T04:44:03;92127.31;;;8.70;45.42
7660;BME280;3872;47.902;8.162;2023-12-28T04:46:29;92128.88;;;9.48;44.73
7660;BME280;3872;47.902;8.162;2023-12-28T04:48:56;92123.72;;;9.85;44.93
7660;BME280;3872;47.902;8.162;2023-12-28T04:51:22;92118.66;;;9.89;44.84
7660;BME280;3872;47.902;8.162;2023-12-28T04:53:49;92117.38;;;10.29;43.89
7660;BME280;3872;47.902;8.162;2023-12-28T04:56:18;92118.66;;;9.89;44.57
7660;BME280;3872;47.902;8.162;2023-12-28T04:58:46;92122.94;;;9.85;44.63
7660;BME280;3872;47.902;8.162;2023-12-28T05:01:12;92109.34;;;9.77;44.58
7660;BME280;3872;47.902;8.162;2023-12-28T05:03:39;92115.31;;;10.02;43.76
7660;BME280;3872;47.902;8.162;2023-12-28T05:06:05;92112.97;;;9.81;44.04
7660;BME280;3872;47.902;8.162;2023-12-28T05:08:32;92112.00;;;9.77;43.28
7660;BME280;3872;47.902;8.162;2023-12-28T05:10:59;92120.53;;;10.07;42.67
7660;BME280;3872;47.902;8.162;2023-12-28T05:13:26;92110.38;;;10.00;42.40
7660;BME280;3872;47.902;8.162;2023-12-28T05:15:54;92116.63;;;9.62;43.33
7660;BME280;3872;47.902;8.162;2023-12-28T05:18:21;92121.09;;;10.04;42.13
7660;BME280;3872;47.902;8.162;2023-12-28T05:20:47;92111.88;;;10.25;40.99
7660;BME280;3872;47.902;8.162;2023-12-28T05:23:14;92110.09;;;10.58;40.69
7660;BME280;3872;47.902;8.162;2023-12-28T05:25:40;92118.97;;;10.06;42.11
7660;BME280;3872;47.902;8.162;2023-12-28T05:28:07;92117.91;;;10.07;41.70
7660;BME280;3872;47.902;8.162;2023-12-28T05:30:33;92122.47;;;10.20;41.52
7660;BME280;3872;47.902;8.162;2023-12-28T05:33:01;92123.25;;;10.58;40.52
7660;BME280;3872;47.902;8.162;2023-12-28T05:35:28;92125.91;;;10.72;40.67
7660;BME280;3872;47.902;8.162;2023-12-28T05:37:54;92130.84;;;10.41;40.95
7660;BME280;3872;47.902;8.162;2023-12-28T05:40:21;92126.19;;;10.70;40.75
7660;BME280;3872;47.902;8.162;2023-12-28T05:42:48;92124.19;;;10.30;41.00
7660;BME280;3872;47.902;8.162;2023-12-28T05:45:14;92132.66;;;10.27;41.31
7660;BME280;3872;47.902;8.162;2023-12-28T05:47:41;92132.66;;;10.27;40.94
7660;BME280;3872;47.902;8.162;2023-12-28T05:50:09;92134.19;;;10.46;41.50
7660;BME280;3872;47.902;8.162;2023-12-28T05:52:36;92127.84;;;9.91;41.94
7660;BME280;3872;47.902;8.162;2023-12-28T05:55:03;92132.53;;;10.13;40.86
7660;BME280;3872;47.902;8.162;2023-12-28T05:57:30;92132.09;;;10.30;40.64
7660;BME280;3872;47.902;8.162;2023-12-28T05:59:56;92131.19;;;10.72;40.17
7660;BME280;3872;47.902;8.162;2023-12-28T06:02:23;92127.22;;;10.55;39.79
7660;BME280;3872;47.902;8.162;2023-12-28T06:04:49;92130.94;;;10.17;40.72
7660;BME280;3872;47.902;8.162;2023-12-28T06:07:17;92132.91;;;10.06;40.86
7660;BME280;3872;47.902;8.162;2023-12-28T06:09:43;92130.13;;;10.16;40.76
7660;BME280;3872;47.902;8.162;2023-12-28T06:12:11;92125.91;;;10.20;40.49
7660;BME280;3872;47.902;8.162;2023-12-28T06:14:38;92117.66;;;10.59;39.60
7660;BME280;3872;47.902;8.162;2023-12-28T06:17:04;92131.97;;;10.16;40.45
7660;BME280;3872;47.902;8.162;2023-12-28T06:19:31;92120.81;;;10.62;40.04
7660;BME280;3872;47.902;8.162;2023-12-28T06:21:57;92133.34;;;10.83;39.74
7660;BME280;3872;47.902;8.162;2023-12-28T06:24:25;92135.84;;;10.75;40.74
7660;BME280;3872;47.902;8.162;2023-12-28T06:26:52;92128.72;;;10.94;40.01
7660;BME280;3872;47.902;8.162;2023-12-28T06:29:18;92137.53;;;11.17;39.76
7660;BME280;3872;47.902;8.162;2023-12-28T06:31:45;92140.19;;;10.84;40.56
7660;BME280;3872;47.902;8.162;2023-12-28T06:34:11;92130.50;;;11.26;40.19
7660;BME280;3872;47.902;8.162;2023-12-28T06:36:38;92136.22;;;11.74;39.20
7660;BME280;3872;47.902;8.162;2023-12-28T06:39:04;92135.13;;;10.88;40.63
7660;BME280;3872;47.902;8.162;2023-12-28T06:41:33;92129.75;;;11.53;40.00
7660;BME280;3872;47.902;8.162;2023-12-28T06:43:59;92136.66;;;11.08;40.72
7660;BME280;3872;47.902;8.162;2023-12-28T06:46:26;92126.25;;;11.57;40.05
7660;BME280;3872;47.902;8.162;2023-12-28T06:48:52;92127.31;;;11.70;39.41
7660;BME280;3872;47.902;8.162;2023-12-28T06:51:19;92126.44;;;11.47;39.99
7660;BME280;3872;47.902;8.162;2023-12-28T06:53:48;92134.28;;;11.06;40.30
7660;BME280;3872;47.902;8.162;2023-12-28T06:56:14;92133.69;;;11.09;39.86
7660;BME280;3872;47.902;8.162;2023-12-28T06:58:42;92137.38;;;11.41;39.32
7660;BME280;3872;47.902;8.162;2023-12-28T07:01:09;92129.53;;;11.08;39.78
7660;BME280;3872;47.902;8.162;2023-12-28T07:03:36;92129.63;;;11.30;39.32
7660;BME280;3872;47.902;8.162;2023-12-28T07:06:02;92123.97;;;11.23;39.13
7660;BME280;3872;47.902;8.162;2023-12-28T07:08:29;92122.63;;;11.53;38.25
7660;BME280;3872;47.902;8.162;2023-12-28T07:10:56;92121.78;;;11.58;38.51
7660;BME280;3872;47.902;8.162;2023-12-28T07:13:23;92128.56;;;11.45;38.80
7660;BME280;3872;47.902;8.162;2023-12-28T07:15:51;92112.38;;;11.24;38.70
7660;BME280;3872;47.902;8.162;2023-12-28T07:18:18;92123.69;;;11.66;38.71
7660;BME280;3872;47.902;8.162;2023-12-28T07:20:45;92118.03;;;11.59;38.36
7660;BME280;3872;47.902;8.162;2023-12-28T07:23:12;92123.19;;;10.77;39.42
7660;BME280;3872;47.902;8.162;2023-12-28T07:25:38;92132.97;;;11.36;39.25
7660;BME280;3872;47.902;8.162;2023-12-28T07:28:05;92131.44;;;11.62;38.14
7660;BME280;3872;47.902;8.162;2023-12-28T07:30:31;92117.63;;;11.65;38.38
7660;BME280;3872;47.902;8.162;2023-12-28T07:32:59;92122.63;;;11.53;38.97
7660;BME280;3872;47.902;8.162;2023-12-28T07:35:26;92136.03;;;10.65;40.51
7660;BME280;3872;47.902;8.162;2023-12-28T07:37:52;92135.00;;;11.25;40.08
7660;BME280;3872;47.902;8.162;2023-12-28T07:40:19;92133.84;;;10.85;40.98
7660;BME280;3872;47.902;8.162;2023-12-28T07:42:46;92141.53;;;10.82;41.33
7660;BME280;3872;47.902;8.162;2023-12-28T07:45:12;92138.97;;;10.44;42.47
7660;BME280;3872;47.902;8.162;2023-12-28T07:47:39;92138.44;;;10.80;41.72
7660;BME280;3872;47.902;8.162;2023-12-28T07:50:08;92131.03;;;11.42;41.15
7660;BME280;3872;47.902;8.162;2023-12-28T07:52:36;92134.25;;;10.60;42.52
7660;BME280;3872;47.902;8.162;2023-12-28T07:55:03;92133.50;;;10.73;42.80
7660;BME280;3872;47.902;8.162;2023-12-28T07:57:29;92147.56;;;10.50;43.50
7660;BME280;3872;47.902;8.162;2023-12-28T07:59:56;92137.19;;;10.58;43.62
7660;BME280;3872;47.902;8.162;2023-12-28T08:02:23;92140.19;;;10.84;43.35
7660;BME280;3872;47.902;8.162;2023-12-28T08:04:49;92142.97;;;11.07;42.92
7660;BME280;3872;47.902;8.162;2023-12-28T08:07:17;92137.59;;;10.66;44.16
7660;BME280;3872;47.902;8.162;2023-12-28T08:09:44;92134.25;;;10.60;44.71
7660;BME280;3872;47.902;8.162;2023-12-28T08:12:10;92135.38;;;10.73;44.84
7660;BME280;3872;47.902;8.162;2023-12-28T08:14:37;92136.03;;;10.46;45.66
7660;BME280;3872;47.902;8.162;2023-12-28T08:17:03;92141.25;;;10.32;46.51
7660;BME280;3872;47.902;8.162;2023-12-28T08:19:30;92136.19;;;11.33;44.22
7660;BME280;3872;47.902;8.162;2023-12-28T08:21:56;92137.25;;;11.46;43.96
7660;BME280;3872;47.902;8.162;2023-12-28T08:24:24;92145.59;;;10.93;44.81
7660;BME280;3872;47.902;8.162;2023-12-28T08:26:51;92149.00;;;10.93;45.17
7660;BME280;3872;47.902;8.162;2023-12-28T08:29:18;92155.09;;;10.19;46.33
7660;BME280;3872;47.902;8.162;2023-12-28T08:31:44;92160.56;;;10.60;45.80
7660;BME280;3872;47.902;8.162;2023-12-28T08:34:11;92163.09;;;10.84;45.50
7660;BME280;3872;47.902;8.162;2023-12-28T08:36:37;92156.97;;;10.88;45.59
7660;BME280;3872;47.902;8.162;2023-12-28T08:39:04;92168.00;;;11.36;44.49
7660;BME280;3872;47.902;8.162;2023-12-28T08:41:32;92158.66;;;11.58;44.30
7660;BME280;3872;47.902;8.162;2023-12-28T08:43:58;92163.75;;;11.08;45.63
7660;BME280;3872;47.902;8.162;2023-12-28T08:46:25;92162.75;;;11.36;45.04
7660;BME280;3872;47.902;8.162;2023-12-28T08:48:51;92175.19;;;11.17;45.90
7660;BME280;3872;47.902;8.162;2023-12-28T08:51:18;92170.59;;;11.23;46.16
7660;BME280;3872;47.902;8.162;2023-12-28T08:53:45;92179.41;;;10.86;47.56
7660;BME280;3872;47.902;8.162;2023-12-28T08:56:13;92184.94;;;10.84;47.64
7660;BME280;3872;47.902;8.162;2023-12-28T08:58:43;92178.38;;;11.60;46.02
7660;BME280;3872;47.902;8.162;2023-12-28T09:01:15;92179.25;;;11.56;47.40
7660;BME280;3872;47.902;8.162;2023-12-28T09:03:42;92163.75;;;11.82;47.69
7660;BME280;3872;47.902;8.162;2023-12-28T09:06:09;92158.94;;;11.43;50.54
7660;BME280;3872;47.902;8.162;2023-12-28T09:08:35;92161.97;;;11.36;52.93
7660;BME280;3872;47.902;8.162;2023-12-28T09:11:02;92152.75;;;10.87;53.02
7660;BME280;3872;47.902;8.162;2023-12-28T09:13:28;92158.56;;;10.71;55.73
7660;BME280;3872;47.902;8.162;2023-12-28T09:15:57;92159.91;;;10.68;55.33
7660;BME280;3872;47.902;8.162;2023-12-28T09:18:24;92167.72;;;10.73;54.58
7660;BME280;3872;47.902;8.162;2023-12-28T09:20:50;92181.13;;;10.20;56.96
7660;BME280;3872;47.902;8.162;2023-12-28T09:23:17;92168.94;;;11.13;54.16
7660;BME280;3872;47.902;8.162;2023-12-28T09:25:43;92171.84;;;11.12;53.75
7660;BME280;3872;47.902;8.162;2023-12-28T09:28:10;92180.31;;;11.55;51.16
7660;BME280;3872;47.902;8.162;2023-12-28T09:30:36;92170.53;;;10.95;53.68
7660;BME280;3872;47.902;8.162;2023-12-28T09:33:04;92171.72;;;10.71;54.51
7660;BME280;3872;47.902;8.162;2023-12-28T09:35:31;92176.56;;;10.26;54.55
7660;BME280;3872;47.902;8.162;2023-12-28T09:37:57;92182.53;;;10.69;54.40
7660;BME280;3872;47.902;8.162;2023-12-28T09:40:24;92187.09;;;10.26;54.42
7660;BME280;3872;47.902;8.162;2023-12-28T09:43:01;92176.03;;;10.80;52.83
7660;BME280;3872;47.902;8.162;2023-12-28T09:45:29;92173.16;;;10.95;53.18
7660;BME280;3872;47.902;8.162;2023-12-28T09:47:56;92172.53;;;10.34;55.12
7660;BME280;3872;47.902;8.162;2023-12-28T09:50:24;92169.22;;;11.12;53.11
7660;BME280;3872;47.902;8.162;2023-12-28T09:52:52;92176.56;;;11.15;53.20
7660;BME280;3872;47.902;8.162;2023-12-28T09:55:19;92179.16;;;10.50;55.79
7660;BME280;3872;47.902;8.162;2023-12-28T09:57:46;92178.41;;;11.14;54.05
7660;BME280;3872;47.902;8.162;2023-12-28T10:00:13;92164.72;;;10.98;54.16
7660;BME280;3872;47.902;8.162;2023-12-28T10:02:40;92167.00;;;11.19;53.75
7660;BME280;3872;47.902;8.162;2023-12-28T10:05:12;92168.09;;;10.85;53.43
7660;BME280;3872;47.902;8.162;2023-12-28T10:07:41;92169.19;;;10.66;54.77
7660;BME280;3872;47.902;8.162;2023-12-28T10:10:08;92153.44;;;11.25;53.19
7660;BME280;3872;47.902;8.162;2023-12-28T10:12:35;92157.53;;;11.18;53.83
7660;BME280;3872;47.902;8.162;2023-12-28T10:15:02;92168.59;;;10.69;55.20
7660;BME280;3872;47.902;8.162;2023-12-28T10:17:29;92163.56;;;10.72;54.42
7660;BME280;3872;47.902;8.162;2023-12-28T10:19:55;92153.22;;;11.08;53.01
7660;BME280;3872;47.902;8.162;2023-12-28T10:22:29;92142.38;;;11.10;52.52
7660;BME280;3872;47.902;8.162;2023-12-28T10:24:57;92160.13;;;10.72;53.16
7660;BME280;3872;47.902;8.162;2023-12-28T10:27:24;92137.34;;;11.27;52.58
7660;BME280;3872;47.902;8.162;2023-12-28T10:29:53;92138.78;;;11.06;54.41
7660;BME280;3872;47.902;8.162;2023-12-28T10:32:19;92132.63;;;11.10;55.31
7660;BME280;3872;47.902;8.162;2023-12-28T10:34:46;92138.84;;;11.74;51.27
7660;BME280;3872;47.902;8.162;2023-12-28T10:37:14;92128.78;;;11.35;52.22
7660;BME280;3872;47.902;8.162;2023-12-28T10:39:45;92130.06;;;10.91;54.48
7660;BME280;3872;47.902;8.162;2023-12-28T10:42:18;92131.81;;;11.28;52.94
7660;BME280;3872;47.902;8.162;2023-12-28T10:44:49;92129.06;;;10.87;55.21
7660;BME280;3872;47.902;8.162;2023-12-28T10:47:21;92125.63;;;11.19;55.79
7660;BME280;3872;47.902;8.162;2023-12-28T10:49:52;92127.72;;;10.90;57.88
7660;BME280;3872;47.902;8.162;2023-12-28T10:52:26;92130.03;;;11.51;55.39
7660;BME280;3872;47.902;8.162;2023-12-28T10:54:59;92129.63;;;10.71;59.93
7660;BME280;3872;47.902;8.162;2023-12-28T10:57:33;92148.34;;;10.50;62.07
7660;BME280;3872;47.902;8.162;2023-12-28T11:00:07;92141.78;;;10.67;62.22
7660;BME280;3872;47.902;8.162;2023-12-28T11:02:38;92142.97;;;10.74;62.57
7660;BME280;3872;47.902;8.162;2023-12-28T11:05:07;92144.13;;;10.68;63.54
7660;BME280;3872;47.902;8.162;2023-12-28T11:07:35;92126.41;;;10.23;66.11
7660;BME280;3872;47.902;8.162;2023-12-28T11:10:05;92138.44;;;10.05;66.02
7660;BME280;3872;47.902;8.162;2023-12-28T11:12:34;92135.69;;;10.34;64.70
7660;BME280;3872;47.902;8.162;2023-12-28T11:15:01;92133.16;;;10.80;62.34
7660;BME280;3872;47.902;8.162;2023-12-28T11:17:30;92123.63;;;10.51;63.01
7660;BME280;3872;47.902;8.162;2023-12-28T11:19:57;92118.59;;;10.69;61.70
7660;BME280;3872;47.902;8.162;2023-12-28T11:22:25;92126.59;;;10.26;64.03
7660;BME280;3872;47.902;8.162;2023-12-28T11:24:52;92123.94;;;10.64;61.79
7660;BME280;3872;47.902;8.162;2023-12-28T11:27:18;92122.94;;;10.92;59.51
7660;BME280;3872;47.902;8.162;2023-12-28T11:29:47;92122.81;;;10.83;58.99
7660;BME280;3872;47.902;8.162;2023-12-28T11:32:14;92126.16;;;10.56;59.81
7660;BME280;3872;47.902;8.162;2023-12-28T11:34:40;92120.75;;;10.80;57.55
7660;BME280;3872;47.902;8.162;2023-12-28T11:37:08;92132.13;;;10.06;58.83
7660;BME280;3872;47.902;8.162;2023-12-28T11:39:41;92131.22;;;10.34;58.15
7660;BME280;3872;47.902;8.162;2023-12-28T11:42:10;92128.59;;;10.34;56.85
7660;BME280;3872;47.902;8.162;2023-12-28T11:44:38;92123.84;;;10.36;56.30
7660;BME280;3872;47.902;8.162;2023-12-28T11:47:14;92123.19;;;10.44;55.06
7660;BME280;3872;47.902;8.162;2023-12-28T11:49:41;92115.66;;;10.19;55.38
7660;BME280;3872;47.902;8.162;2023-12-28T11:52:22;92111.56;;;10.45;54.61
7660;BME280;3872;47.902;8.162;2023-12-28T11:54:48;92120.78;;;10.29;54.37
7660;BME280;3872;47.902;8.162;2023-12-28T11:57:16;92110.03;;;10.44;54.24
7660;BME280;3872;47.902;8.162;2023-12-28T11:59:42;92119.22;;;10.28;53.84
7660;BME280;3872;47.902;8.162;2023-12-28T12:02:09;92109.53;;;10.24;54.46
7660;BME280;3872;47.902;8.162;2023-12-28T12:04:38;92113.88;;;10.33;54.02
7660;BME280;3872;47.902;8.162;2023-12-28T12:07:04;92111.00;;;10.48;54.22
7660;BME280;3872;47.902;8.162;2023-12-28T12:09:31;92104.50;;;10.78;53.17
7660;BME280;3872;47.902;8.162;2023-12-28T12:11:59;92112.09;;;11.53;50.37
7660;BME280;3872;47.902;8.162;2023-12-28T12:14:26;92102.81;;;11.15;51.94
7660;BME280;3872;47.902;8.162;2023-12-28T12:16:53;92106.75;;;10.15;56.62
7660;BME280;3872;47.902;8.162;2023-12-28T12:19:22;92108.84;;;10.37;56.41
7660;BME280;3872;47.902;8.162;2023-12-28T12:21:50;92110.13;;;10.72;55.79
7660;BME280;3872;47.902;8.162;2023-12-28T12:24:17;92114.56;;;10.90;54.77
7660;BME280;3872;47.902;8.162;2023-12-28T12:26:45;92112.31;;;10.97;55.59
7660;BME280;3872;47.902;8.162;2023-12-28T12:29:11;92126.47;;;10.36;58.61
7660;BME280;3872;47.902;8.162;2023-12-28T12:31:39;92132.13;;;10.06;61.84
7660;BME280;3872;47.902;8.162;2023-12-28T12:34:07;92117.94;;;10.77;60.87
7660;BME280;3872;47.902;8.162;2023-12-28T12:36:34;92137.41;;;10.25;63.08
7660;BME280;3872;47.902;8.162;2023-12-28T12:39:02;92132.94;;;10.76;62.79
7660;BME280;3872;47.902;8.162;2023-12-28T12:41:31;92141.44;;;10.17;67.03
7660;BME280;3872;47.902;8.162;2023-12-28T12:43:58;92141.91;;;9.58;71.98
7660;BME280;3872;47.902;8.162;2023-12-28T12:46:25;92140.19;;;9.48;73.00
7660;BME280;3872;47.902;8.162;2023-12-28T12:48:55;92139.25;;;9.10;75.23
7660;BME280;3872;47.902;8.162;2023-12-28T12:51:22;92143.19;;;10.03;72.45
7660;BME280;3872;47.902;8.162;2023-12-28T12:53:49;92135.84;;;9.81;77.93
7660;BME280;3872;47.902;8.162;2023-12-28T12:56:17;92132.25;;;9.96;76.93
7660;BME280;3872;47.902;8.162;2023-12-28T12:58:45;92133.34;;;10.83;72.53
7660;BME280;3872;47.902;8.162;2023-12-28T13:01:11;92098.78;;;11.04;69.61
7660;BME280;3872;47.902;8.162;2023-12-28T13:03:37;92071.28;;;11.10;67.14
7660;BME280;3872;47.902;8.162;2023-12-28T13:06:04;92058.44;;;11.08;69.03
7660;BME280;3872;47.902;8.162;2023-12-28T13:08:31;92065.19;;;10.36;74.71
7660;BME280;3872;47.902;8.162;2023-12-28T13:10:57;92074.13;;;11.41;69.82
7660;BME280;3872;47.902;8.162;2023-12-28T13:13:26;92063.38;;;11.23;73.44
7660;BME280;3872;47.902;8.162;2023-12-28T13:15:52;92073.25;;;10.39;78.57
7660;BME280;3872;47.902;8.162;2023-12-28T13:18:19;92070.81;;;11.08;76.25
7660;BME280;3872;47.902;8.162;2023-12-28T13:20:45;92070.31;;;11.47;74.40
7660;BME280;3872;47.902;8.162;2023-12-28T13:23:12;92070.84;;;9.68;82.22